Time;durP1;ratioP1;P1;durP2;ratioP2;P2;SDS_P1;SDS_P2;PMS_P1;PMS_P2;Temp;Humidity;BMP_temperature;BMP_pressure;BME280_temperature;BME280_humidity;BME280_pressure;Samples;Min_cycle;Max_cycle;Signal;HPM_P1;HPM_P2
2022/03/05 00:00:30;;;;;;;10.65;8.95;;;2.50;99.90;;;;;;5013380;28;20370;-84
2022/03/05 00:02:58;;;;;;;9.15;7.72;;;2.60;99.90;;;;;;5013720;28;20219;-85
2022/03/05 00:05:27;;;;;;;11.53;8.47;;;2.60;99.90;;;;;;5013808;28;20210;-85
2022/03/05 00:07:55;;;;;;;9.83;8.53;;;2.60;99.90;;;;;;5014084;28;20258;-85
2022/03/05 00:10:25;;;;;;;11.88;8.30;;;2.60;99.90;;;;;;5013679;28;20253;-85
2022/03/05 00:12:54;;;;;;;9.20;7.75;;;2.60;99.90;;;;;;5013672;28;20223;-84
2022/03/05 00:15:23;;;;;;;9.88;8.35;;;2.60;99.90;;;;;;5013580;28;20203;-84
2022/03/05 00:17:53;;;;;;;11.37;8.60;;;2.60;99.90;;;;;;5013480;28;20203;-84
2022/03/05 00:20:22;;;;;;;8.50;7.45;;;2.60;99.90;;;;;;5012911;28;20246;-84
2022/03/05 00:22:52;;;;;;;12.67;8.23;;;2.60;99.90;;;;;;5013076;28;20234;-84
2022/03/05 00:25:21;;;;;;;10.45;8.25;;;2.60;99.90;;;;;;5012829;28;20234;-85
2022/03/05 00:27:51;;;;;;;11.52;8.50;;;2.60;99.90;;;;;;5013103;28;20261;-85
2022/03/05 00:30:19;;;;;;;12.70;8.80;;;2.50;99.90;;;;;;5013134;28;20230;-84
2022/03/05 00:32:48;;;;;;;9.63;8.25;;;2.50;99.90;;;;;;5013393;28;20295;-85
2022/03/05 00:35:17;;;;;;;10.47;8.93;;;2.60;99.90;;;;;;5013669;28;20260;-85
2022/03/05 00:37:45;;;;;;;10.98;9.52;;;2.60;99.90;;;;;;5013084;28;20207;-85
2022/03/05 00:40:14;;;;;;;9.23;8.27;;;2.60;99.90;;;;;;5013176;28;20223;-84
2022/03/05 00:42:43;;;;;;;10.37;8.50;;;2.60;99.90;;;;;;5012766;28;20233;-83
2022/03/05 00:45:13;;;;;;;11.27;9.13;;;2.60;99.90;;;;;;5012809;28;20210;-85
2022/03/05 00:47:41;;;;;;;12.43;8.55;;;2.60;99.90;;;;;;5012863;28;20295;-85
2022/03/05 00:50:11;;;;;;;12.43;9.43;;;2.60;99.90;;;;;;5012683;28;20247;-84
2022/03/05 00:52:39;;;;;;;12.83;9.57;;;2.60;99.90;;;;;;5013101;28;20215;-84
2022/03/05 00:55:08;;;;;;;10.27;8.70;;;2.60;99.90;;;;;;5012974;28;20310;-84
2022/03/05 00:57:38;;;;;;;10.68;8.55;;;2.60;99.90;;;;;;5013217;28;20219;-84
2022/03/05 01:00:10;;;;;;;8.15;7.30;;;2.60;99.90;;;;;;5012795;28;20230;-84
2022/03/05 01:02:41;;;;;;;11.03;9.40;;;2.60;99.90;;;;;;5012769;28;20207;-85
2022/03/05 01:05:11;;;;;;;11.93;9.10;;;2.60;99.90;;;;;;5012926;28;20207;-84
2022/03/05 01:07:39;;;;;;;12.38;9.45;;;2.60;99.90;;;;;;5012469;28;20211;-84
2022/03/05 01:10:08;;;;;;;11.68;8.30;;;2.60;99.90;;;;;;5011878;28;20239;-84
2022/03/05 01:12:37;;;;;;;12.00;9.25;;;2.60;99.90;;;;;;5012539;28;20203;-84
2022/03/05 01:15:08;;;;;;;11.57;8.50;;;2.60;99.90;;;;;;5012901;28;20342;-84
2022/03/05 01:17:36;;;;;;;15.18;9.25;;;2.60;99.90;;;;;;5013249;28;20234;-83
2022/03/05 01:20:07;;;;;;;9.65;8.63;;;2.60;99.90;;;;;;5012655;28;20282;-84
2022/03/05 01:22:36;;;;;;;13.65;9.45;;;2.50;99.90;;;;;;5012668;28;20254;-84
2022/03/05 01:25:05;;;;;;;10.07;9.00;;;2.60;99.90;;;;;;5012785;28;20229;-85
2022/03/05 01:27:33;;;;;;;14.38;10.20;;;2.60;99.90;;;;;;5012823;28;20207;-84
2022/03/05 01:30:02;;;;;;;9.52;8.20;;;2.60;99.90;;;;;;5012485;28;20309;-85
2022/03/05 01:32:30;;;;;;;12.50;9.97;;;2.70;99.90;;;;;;5012491;28;20210;-83
2022/03/05 01:34:59;;;;;;;13.02;9.27;;;2.70;99.90;;;;;;5012812;28;20241;-85
2022/03/05 01:37:28;;;;;;;12.93;9.77;;;2.70;99.90;;;;;;5012637;28;20245;-84
2022/03/05 01:39:57;;;;;;;17.02;9.82;;;2.70;99.90;;;;;;5012556;28;20230;-84
2022/03/05 01:42:26;;;;;;;12.65;9.57;;;2.70;99.90;;;;;;5012442;28;20211;-83
2022/03/05 01:44:54;;;;;;;11.70;9.60;;;2.80;99.90;;;;;;5012222;28;20231;-83
2022/03/05 01:47:23;;;;;;;11.38;9.38;;;2.80;99.90;;;;;;5012290;28;20266;-84
2022/03/05 01:49:51;;;;;;;12.55;9.38;;;2.80;99.90;;;;;;5012314;28;20297;-83
2022/03/05 01:52:20;;;;;;;11.13;9.18;;;2.80;99.90;;;;;;5012350;28;20206;-84
2022/03/05 01:54:50;;;;;;;9.73;7.90;;;2.70;99.90;;;;;;5012263;28;20255;-84
2022/03/05 01:57:18;;;;;;;14.20;9.50;;;2.70;99.90;;;;;;5012723;28;20285;-84
2022/03/05 01:59:47;;;;;;;12.77;9.50;;;2.70;99.90;;;;;;5012281;28;20263;-84
2022/03/05 02:02:15;;;;;;;12.50;8.18;;;2.70;99.90;;;;;;5012079;28;20231;-84
2022/03/05 02:04:44;;;;;;;12.75;8.50;;;2.70;99.90;;;;;;5012644;28;20254;-84
2022/03/05 02:07:14;;;;;;;14.50;10.30;;;2.70;99.90;;;;;;5012438;28;20233;-84
2022/03/05 02:09:42;;;;;;;10.30;8.88;;;2.70;99.90;;;;;;5012380;28;20251;-85
2022/03/05 02:12:12;;;;;;;9.52;8.57;;;2.70;99.90;;;;;;5011829;28;20207;-83
2022/03/05 02:14:40;;;;;;;13.43;9.52;;;2.70;99.90;;;;;;5012149;28;20211;-83
2022/03/05 02:17:10;;;;;;;12.15;9.38;;;2.70;99.90;;;;;;5012947;28;20261;-84
2022/03/05 02:19:38;;;;;;;17.57;10.27;;;2.70;99.90;;;;;;5012113;28;20219;-85
2022/03/05 02:22:10;;;;;;;13.33;10.30;;;2.60;99.90;;;;;;5014331;28;20254;-85
2022/03/05 02:24:39;;;;;;;10.80;9.63;;;2.60;99.90;;;;;;5016023;28;20210;-83
2022/03/05 02:27:10;;;;;;;12.77;9.73;;;2.60;99.90;;;;;;5015351;28;20286;-84
2022/03/05 02:29:39;;;;;;;10.60;8.73;;;2.70;99.90;;;;;;5015682;28;20237;-85
2022/03/05 02:32:08;;;;;;;12.10;9.45;;;2.70;99.90;;;;;;5015738;28;20253;-84
2022/03/05 02:34:37;;;;;;;10.05;8.63;;;2.60;99.90;;;;;;5015942;28;20274;-84
2022/03/05 02:37:10;;;;;;;14.63;10.35;;;2.60;99.90;;;;;;5015643;28;20235;-84
2022/03/05 02:39:38;;;;;;;12.40;9.85;;;2.60;99.90;;;;;;5015575;28;20250;-85
2022/03/05 02:42:07;;;;;;;13.50;10.70;;;2.60;99.90;;;;;;5015657;28;20211;-85
2022/03/05 02:44:36;;;;;;;11.65;9.63;;;2.50;99.90;;;;;;5015781;28;20271;-82
2022/03/05 02:47:05;;;;;;;10.85;9.77;;;2.60;99.90;;;;;;5015753;28;20281;-84
2022/03/05 02:49:34;;;;;;;12.73;10.40;;;2.50;99.90;;;;;;5015552;28;20318;-84
2022/03/05 02:52:02;;;;;;;13.50;10.63;;;2.50;99.90;;;;;;5015166;28;20292;-84
2022/03/05 02:54:32;;;;;;;12.50;10.85;;;2.50;99.90;;;;;;5015300;28;20265;-84
2022/03/05 02:57:00;;;;;;;12.15;9.32;;;2.40;99.90;;;;;;5015386;28;20261;-83
2022/03/05 02:59:29;;;;;;;12.80;10.82;;;2.40;99.90;;;;;;5015018;28;20234;-84
2022/03/05 03:01:57;;;;;;;12.82;10.30;;;2.40;99.90;;;;;;5014937;28;20242;-83
2022/03/05 03:04:26;;;;;;;16.50;11.02;;;2.40;99.90;;;;;;5015392;28;20269;-85
2022/03/05 03:06:54;;;;;;;16.35;10.63;;;2.40;99.90;;;;;;5014868;28;20203;-83
2022/03/05 03:09:23;;;;;;;16.23;10.27;;;2.40;99.90;;;;;;5014934;28;20218;-84
2022/03/05 03:11:53;;;;;;;16.90;10.77;;;2.50;99.90;;;;;;5014906;28;20207;-84
2022/03/05 03:14:21;;;;;;;15.60;10.82;;;2.50;99.90;;;;;;5015189;28;20202;-83
2022/03/05 03:16:49;;;;;;;11.20;9.93;;;2.40;99.90;;;;;;5014749;28;20234;-84
2022/03/05 03:19:18;;;;;;;14.02;10.35;;;2.50;99.90;;;;;;5014257;28;20223;-84
2022/03/05 03:21:47;;;;;;;12.98;9.95;;;2.50;99.90;;;;;;5014862;28;20234;-84
2022/03/05 03:24:15;;;;;;;12.13;9.85;;;2.50;99.90;;;;;;5014615;28;20299;-83
2022/03/05 03:26:45;;;;;;;13.65;10.23;;;2.50;99.90;;;;;;5014638;28;20238;-83
2022/03/05 03:29:14;;;;;;;15.02;10.50;;;2.50;99.90;;;;;;5014485;28;20227;-83
2022/03/05 03:31:43;;;;;;;10.48;9.32;;;2.50;99.90;;;;;;5013995;28;20241;-83
2022/03/05 03:34:11;;;;;;;21.45;11.48;;;2.50;99.90;;;;;;5013699;28;20210;-84
2022/03/05 03:36:39;;;;;;;11.68;10.32;;;2.50;99.90;;;;;;5014384;28;20238;-83
2022/03/05 03:39:08;;;;;;;12.68;10.18;;;2.50;99.90;;;;;;5014044;28;20323;-84
2022/03/05 03:41:36;;;;;;;10.00;9.00;;;2.50;99.90;;;;;;5014424;28;20200;-83
2022/03/05 03:44:09;;;;;;;10.85;9.43;;;2.50;99.90;;;;;;5014684;28;20283;-84
2022/03/05 03:46:39;;;;;;;15.60;10.80;;;2.60;99.90;;;;;;5014413;28;20215;-83
2022/03/05 03:49:08;;;;;;;11.00;9.90;;;2.50;99.90;;;;;;5014482;28;20253;-83
2022/03/05 03:51:39;;;;;;;14.57;10.25;;;2.50;99.90;;;;;;5014602;28;20292;-83
2022/03/05 03:54:08;;;;;;;10.65;9.38;;;2.50;99.90;;;;;;5014307;28;20211;-84
2022/03/05 03:56:36;;;;;;;12.48;9.50;;;2.40;99.90;;;;;;5014126;28;20236;-83
2022/03/05 03:59:04;;;;;;;12.27;10.73;;;2.40;99.90;;;;;;5014072;28;20207;-84
2022/03/05 04:01:33;;;;;;;13.73;9.82;;;2.50;99.90;;;;;;5013800;28;20234;-83
2022/03/05 04:04:03;;;;;;;13.18;10.60;;;2.40;99.90;;;;;;5013749;28;20207;-84
2022/03/05 04:08:41;;;;;;;15.85;11.25;;;2.40;99.90;;;;;;5014086;28;20207;-84
2022/03/05 04:09:24;;;;;;;14.55;10.25;;;2.40;99.90;;;;;;5014294;28;20203;-83
2022/03/05 04:11:52;;;;;;;16.63;10.45;;;2.40;99.90;;;;;;5013869;28;20251;-82
2022/03/05 04:14:23;;;;;;;11.90;9.93;;;2.40;99.90;;;;;;5013834;28;20207;-84
2022/03/05 04:16:52;;;;;;;16.25;11.73;;;2.30;99.90;;;;;;5013867;28;20215;-84
2022/03/05 04:19:22;;;;;;;14.33;11.13;;;2.30;99.90;;;;;;5013211;28;20211;-84
2022/03/05 04:21:50;;;;;;;11.20;9.57;;;2.20;99.90;;;;;;5013955;28;20199;-83
2022/03/05 04:24:19;;;;;;;11.82;10.02;;;2.20;99.90;;;;;;5013670;28;20207;-83
2022/03/05 04:26:47;;;;;;;12.70;10.88;;;2.10;99.90;;;;;;5013453;28;20203;-83
2022/03/05 04:29:15;;;;;;;13.73;10.97;;;2.10;99.90;;;;;;5013523;28;20261;-84
2022/03/05 04:31:44;;;;;;;10.13;9.13;;;2.10;99.90;;;;;;5013303;28;20227;-83
2022/03/05 04:34:12;;;;;;;11.53;10.33;;;2.00;99.90;;;;;;5013254;28;20274;-83
2022/03/05 04:36:42;;;;;;;15.10;10.93;;;1.90;99.90;;;;;;5013599;28;20238;-83
2022/03/05 04:39:10;;;;;;;11.80;9.90;;;1.90;99.90;;;;;;5013647;28;20226;-83
2022/03/05 04:41:39;;;;;;;24.92;10.90;;;1.90;99.90;;;;;;5013359;28;20206;-84
2022/03/05 04:44:08;;;;;;;19.13;11.57;;;1.80;99.90;;;;;;5013187;28;20207;-83
2022/03/05 04:46:36;;;;;;;10.55;9.45;;;1.80;99.90;;;;;;5013498;28;20211;-84
2022/03/05 04:49:06;;;;;;;11.87;10.33;;;1.80;99.90;;;;;;5013270;28;20210;-83
2022/03/05 04:51:34;;;;;;;16.00;11.27;;;1.80;99.90;;;;;;5012781;28;20235;-84
2022/03/05 04:54:04;;;;;;;12.43;10.60;;;1.80;99.90;;;;;;5013201;28;20268;-83
2022/03/05 04:56:33;;;;;;;14.07;10.50;;;1.80;99.90;;;;;;5013326;28;20284;-83
2022/03/05 04:59:02;;;;;;;12.00;10.23;;;1.70;99.90;;;;;;5013260;28;20203;-84
2022/03/05 05:01:30;;;;;;;12.97;10.20;;;1.80;99.90;;;;;;5012869;28;20235;-84
2022/03/05 05:03:59;;;;;;;14.43;11.90;;;1.80;99.90;;;;;;5013088;28;20207;-84
2022/03/05 05:06:27;;;;;;;17.00;12.53;;;1.80;99.90;;;;;;5013069;28;20211;-83
2022/03/05 05:08:56;;;;;;;11.10;9.70;;;1.80;99.90;;;;;;5012744;28;20203;-84
2022/03/05 05:11:26;;;;;;;15.63;11.53;;;1.80;99.90;;;;;;5012554;28;20253;-83
2022/03/05 05:13:54;;;;;;;14.13;11.07;;;1.80;99.90;;;;;;5013112;28;20203;-83
2022/03/05 05:16:23;;;;;;;12.47;10.30;;;1.80;99.90;;;;;;5013103;28;20230;-83
2022/03/05 05:21:37;;;;;;;12.82;10.75;;;1.90;99.90;;;;;;5012819;28;20254;-83
2022/03/05 05:24:06;;;;;;;15.60;10.57;;;1.90;99.90;;;;;;5012919;28;20230;-84
2022/03/05 05:26:36;;;;;;;11.63;10.40;;;1.90;99.90;;;;;;5012527;28;20207;-83
2022/03/05 05:29:04;;;;;;;12.73;10.93;;;2.00;99.90;;;;;;5013037;28;20199;-84
2022/03/05 05:31:32;;;;;;;10.13;9.02;;;2.00;99.90;;;;;;5012532;28;20219;-83
2022/03/05 05:34:01;;;;;;;24.15;12.10;;;2.00;99.90;;;;;;5012584;28;20199;-83
2022/03/05 05:36:29;;;;;;;14.05;11.65;;;1.90;99.90;;;;;;5012876;28;20199;-83
2022/03/05 05:38:58;;;;;;;12.52;9.98;;;2.00;99.90;;;;;;5012717;28;20289;-83
2022/03/05 05:41:26;;;;;;;13.67;11.13;;;1.90;99.90;;;;;;5012089;28;20223;-83
2022/03/05 05:43:56;;;;;;;15.40;12.30;;;2.00;99.90;;;;;;5012787;28;20261;-83
2022/03/05 05:46:24;;;;;;;14.03;11.20;;;2.00;99.90;;;;;;5012647;28;20199;-84
2022/03/05 05:48:55;;;;;;;16.10;11.13;;;2.00;99.90;;;;;;5012670;28;20210;-84
2022/03/05 05:51:24;;;;;;;14.13;10.80;;;2.00;99.90;;;;;;5011910;28;20227;-83
2022/03/05 05:53:55;;;;;;;12.83;9.73;;;2.00;99.90;;;;;;5012467;28;20211;-83
2022/03/05 05:56:24;;;;;;;13.77;11.83;;;2.00;99.90;;;;;;5013966;28;20229;-82
2022/03/05 05:58:53;;;;;;;11.27;9.87;;;2.00;99.90;;;;;;5016723;28;20211;-83
2022/03/05 06:01:23;;;;;;;12.43;10.77;;;2.00;99.90;;;;;;5016101;28;20230;-83
2022/03/05 06:03:52;;;;;;;11.82;10.55;;;2.10;99.90;;;;;;5016184;28;20199;-83
2022/03/05 06:06:21;;;;;;;18.52;10.35;;;2.10;99.90;;;;;;5016082;28;20234;-84
2022/03/05 06:08:50;;;;;;;16.83;11.67;;;2.20;99.90;;;;;;5016018;28;20207;-84
2022/03/05 06:11:19;;;;;;;15.82;10.48;;;2.20;99.90;;;;;;5015750;28;20297;-83
2022/03/05 06:13:47;;;;;;;12.63;10.97;;;2.20;99.90;;;;;;5015999;28;20230;-83
2022/03/05 06:16:18;;;;;;;12.88;10.90;;;2.30;99.90;;;;;;5015949;28;20211;-83
2022/03/05 06:18:48;;;;;;;14.00;11.48;;;2.30;99.90;;;;;;5015983;28;20269;-83
2022/03/05 06:21:16;;;;;;;11.30;10.10;;;2.40;99.90;;;;;;5015702;28;20261;-84
2022/03/05 06:23:44;;;;;;;13.13;10.82;;;2.40;99.90;;;;;;5016087;28;20231;-83
2022/03/05 06:26:13;;;;;;;15.77;11.10;;;2.40;99.90;;;;;;5015671;28;20298;-82
2022/03/05 06:28:41;;;;;;;11.83;9.43;;;2.40;99.90;;;;;;5015558;28;20203;-83
2022/03/05 06:31:09;;;;;;;16.52;10.40;;;2.50;99.90;;;;;;5015358;28;20222;-84
2022/03/05 06:33:39;;;;;;;12.03;10.30;;;2.50;99.90;;;;;;5016011;28;20223;-83
2022/03/05 06:36:09;;;;;;;13.80;9.57;;;2.60;99.90;;;;;;5016011;28;20234;-83
2022/03/05 06:38:37;;;;;;;12.82;10.60;;;2.60;99.90;;;;;;5015583;28;20226;-84
2022/03/05 06:41:05;;;;;;;13.15;9.93;;;2.60;99.90;;;;;;5015128;28;20250;-83
2022/03/05 06:43:34;;;;;;;15.80;11.07;;;2.70;99.90;;;;;;5015608;28;20273;-83
2022/03/05 06:46:02;;;;;;;14.65;9.30;;;2.80;99.90;;;;;;5015413;28;20230;-83
2022/03/05 06:48:31;;;;;;;12.65;10.40;;;2.80;99.90;;;;;;5015731;28;20203;-85
2022/03/05 06:50:59;;;;;;;9.52;8.63;;;2.80;99.90;;;;;;5015102;28;20235;-86
2022/03/05 06:53:29;;;;;;;12.45;10.82;;;2.90;99.90;;;;;;5015376;28;20203;-85
2022/03/05 06:55:57;;;;;;;11.35;10.13;;;3.00;99.90;;;;;;5015246;28;20292;-85
2022/03/05 06:58:26;;;;;;;10.25;9.07;;;3.00;99.90;;;;;;5015198;28;20198;-85
2022/03/05 07:00:54;;;;;;;19.65;10.70;;;3.10;99.90;;;;;;5015169;28;20246;-87
2022/03/05 07:03:23;;;;;;;11.45;9.75;;;3.10;99.90;;;;;;5015081;28;20208;-85
2022/03/05 07:05:51;;;;;;;13.77;10.50;;;3.10;99.90;;;;;;5015240;28;20211;-84
2022/03/05 07:08:20;;;;;;;10.20;9.10;;;3.20;99.90;;;;;;5013635;28;20273;-85
2022/03/05 07:10:49;;;;;;;10.57;8.80;;;3.20;99.90;;;;;;5014637;28;20230;-86
2022/03/05 07:13:18;;;;;;;13.27;10.00;;;3.30;99.90;;;;;;5015017;28;20251;-86
2022/03/05 07:15:47;;;;;;;12.57;10.07;;;3.30;99.90;;;;;;5015071;28;20285;-85
2022/03/05 07:18:15;;;;;;;11.38;9.73;;;3.30;99.90;;;;;;5014889;28;20211;-84
2022/03/05 07:20:44;;;;;;;13.70;9.15;;;3.40;99.90;;;;;;5014886;28;20231;-83
2022/03/05 07:23:12;;;;;;;15.07;9.77;;;3.40;99.90;;;;;;5014821;28;20219;-84
2022/03/05 07:25:40;;;;;;;10.10;9.10;;;3.50;99.90;;;;;;5014680;28;20234;-84
2022/03/05 07:28:11;;;;;;;12.10;10.07;;;3.50;99.90;;;;;;5015137;28;20238;-84
2022/03/05 07:30:40;;;;;;;10.15;8.98;;;3.60;99.90;;;;;;5014533;28;20230;-84
2022/03/05 07:33:14;;;;;;;30.10;11.23;;;3.70;99.90;;;;;;5014513;28;20255;-84
2022/03/05 07:35:42;;;;;;;11.55;10.35;;;3.80;99.90;;;;;;5014598;28;20207;-85
2022/03/05 07:38:11;;;;;;;15.75;10.23;;;4.00;99.90;;;;;;5014808;28;20211;-84
2022/03/05 07:40:39;;;;;;;10.55;9.35;;;4.00;99.90;;;;;;5014601;28;20261;-83
2022/03/05 07:43:07;;;;;;;9.88;8.45;;;4.20;99.90;;;;;;5014583;28;20233;-83
2022/03/05 07:45:37;;;;;;;12.52;10.18;;;4.30;99.90;;;;;;5014435;28;20215;-83
2022/03/05 07:48:06;;;;;;;12.23;10.13;;;4.40;99.90;;;;;;5014188;28;20203;-83
2022/03/05 07:50:35;;;;;;;12.10;9.43;;;4.50;99.90;;;;;;5014804;28;20227;-84
2022/03/05 07:53:03;;;;;;;11.30;9.50;;;4.70;99.90;;;;;;5014442;28;20219;-85
2022/03/05 07:55:32;;;;;;;14.10;9.88;;;4.80;99.90;;;;;;5014153;28;20206;-83
2022/03/05 07:58:00;;;;;;;10.13;8.57;;;4.90;99.90;;;;;;5014407;28;20254;-84
2022/03/05 08:00:28;;;;;;;10.35;8.70;;;5.00;99.90;;;;;;5013713;28;20243;-83
2022/03/05 08:02:59;;;;;;;12.30;9.90;;;5.10;99.90;;;;;;5014059;28;20297;-84
2022/03/05 08:05:28;;;;;;;10.68;8.95;;;5.20;99.90;;;;;;5014413;28;20215;-83
2022/03/05 08:07:56;;;;;;;21.48;9.25;;;5.30;99.90;;;;;;5014141;28;20211;-83
2022/03/05 08:10:25;;;;;;;14.88;10.35;;;5.50;99.90;;;;;;5015419;28;20238;-83
2022/03/05 08:12:53;;;;;;;9.50;8.50;;;5.60;99.90;;;;;;5014298;28;20226;-83
2022/03/05 08:15:22;;;;;;;12.02;9.10;;;5.70;99.90;;;;;;5013890;28;20249;-84
2022/03/05 08:17:52;;;;;;;11.32;9.23;;;5.80;99.90;;;;;;5013461;28;20218;-83
2022/03/05 08:20:23;;;;;;;12.55;8.75;;;5.70;99.90;;;;;;5013516;28;20277;-84
2022/03/05 08:22:52;;;;;;;9.40;7.85;;;5.70;99.90;;;;;;5013865;28;20241;-84
2022/03/05 08:25:21;;;;;;;11.75;8.98;;;5.70;99.90;;;;;;5013394;28;20203;-83
2022/03/05 08:27:50;;;;;;;10.48;8.23;;;5.80;99.90;;;;;;5013797;28;20289;-87
2022/03/05 08:30:20;;;;;;;9.95;8.50;;;5.80;99.90;;;;;;5013168;28;20227;-84
2022/03/05 08:32:48;;;;;;;8.35;7.47;;;5.70;99.90;;;;;;5013576;28;20219;-83
2022/03/05 08:35:18;;;;;;;14.25;9.95;;;5.70;99.90;;;;;;5013435;28;20277;-83
2022/03/05 08:37:48;;;;;;;9.02;8.20;;;5.70;99.90;;;;;;5013419;28;20203;-86
2022/03/05 08:40:17;;;;;;;9.63;8.63;;;5.80;99.90;;;;;;5013078;28;20249;-84
2022/03/05 08:42:48;;;;;;;16.35;9.63;;;5.90;99.90;;;;;;5013781;28;20222;-84
2022/03/05 08:45:16;;;;;;;11.05;8.77;;;6.00;99.90;;;;;;5013775;28;20211;-83
2022/03/05 08:47:45;;;;;;;10.95;9.13;;;6.00;99.90;;;;;;5013418;28;20207;-84
2022/03/05 08:50:14;;;;;;;8.07;7.38;;;6.00;99.90;;;;;;5013194;28;20284;-85
2022/03/05 08:52:42;;;;;;;14.48;9.70;;;6.00;99.90;;;;;;5013118;28;20228;-83
2022/03/05 08:55:16;;;;;;;9.63;8.73;;;6.20;99.90;;;;;;5013233;28;20203;-84
2022/03/05 08:57:46;;;;;;;9.07;8.18;;;6.30;99.90;;;;;;5013358;28;20207;-83
2022/03/05 09:00:16;;;;;;;11.63;9.23;;;6.50;99.90;;;;;;5012996;28;20294;-83
2022/03/05 09:02:45;;;;;;;9.27;8.35;;;6.90;99.90;;;;;;5012912;28;20237;-83
2022/03/05 09:05:14;;;;;;;11.45;10.25;;;7.10;99.90;;;;;;5012839;28;20286;-84
2022/03/05 09:07:43;;;;;;;10.85;9.73;;;7.50;99.90;;;;;;5013096;28;20269;-83
2022/03/05 09:10:13;;;;;;;9.55;8.32;;;7.70;99.90;;;;;;5013134;28;20242;-83
2022/03/05 09:12:42;;;;;;;12.30;8.13;;;7.80;99.90;;;;;;5013227;28;20246;-83
2022/03/05 09:15:11;;;;;;;10.25;9.35;;;7.90;99.90;;;;;;5012691;28;20203;-84
2022/03/05 09:17:40;;;;;;;9.23;8.23;;;8.00;99.90;;;;;;5012642;28;20214;-84
2022/03/05 09:20:10;;;;;;;11.52;8.38;;;8.20;99.90;;;;;;5012719;28;20226;-84
2022/03/05 09:22:38;;;;;;;9.35;8.32;;;8.30;99.90;;;;;;5012726;28;20226;-84
2022/03/05 09:25:09;;;;;;;9.30;8.43;;;8.30;99.90;;;;;;5012962;28;20223;-84
2022/03/05 09:27:39;;;;;;;10.38;9.07;;;8.20;99.90;;;;;;5013109;28;20277;-84
2022/03/05 09:30:08;;;;;;;14.20;10.05;;;8.20;99.90;;;;;;5012585;28;20258;-84
2022/03/05 09:32:37;;;;;;;10.50;9.30;;;8.00;99.90;;;;;;5012019;28;20239;-83
2022/03/05 09:35:06;;;;;;;9.98;8.90;;;8.10;99.90;;;;;;5012578;28;20265;-83
2022/03/05 09:37:35;;;;;;;14.00;9.23;;;8.00;99.90;;;;;;5012554;28;20211;-84
2022/03/05 09:40:12;;;;;;;11.18;9.18;;;7.70;99.90;;;;;;5012820;28;20250;-84
2022/03/05 09:42:46;;;;;;;9.80;8.90;;;7.90;99.90;;;;;;5012617;28;20257;-84
2022/03/05 09:45:15;;;;;;;9.90;8.35;;;8.10;99.90;;;;;;5012549;28;20203;-84
2022/03/05 09:47:45;;;;;;;9.68;8.27;;;8.30;99.90;;;;;;5012165;28;20242;-83
2022/03/05 09:50:14;;;;;;;9.20;8.38;;;8.30;99.90;;;;;;5011984;28;20245;-84
2022/03/05 09:52:43;;;;;;;9.93;8.45;;;8.20;99.90;;;;;;5012916;28;20230;-84
2022/03/05 09:55:11;;;;;;;11.35;9.07;;;8.20;99.90;;;;;;5012588;28;20203;-83
2022/03/05 09:57:40;;;;;;;10.07;8.75;;;8.10;99.90;;;;;;5012350;28;20270;-83
2022/03/05 10:00:10;;;;;;;9.73;8.48;;;8.00;99.90;;;;;;5012245;28;20231;-83
2022/03/05 10:02:39;;;;;;;10.38;9.38;;;7.90;99.90;;;;;;5012308;28;20199;-85
2022/03/05 10:05:19;;;;;;;15.45;11.18;;;8.00;99.90;;;;;;5012224;28;20274;-85
2022/03/05 10:08:10;;;;;;;10.30;9.25;;;8.00;99.90;;;;;;5012619;28;20210;-83
2022/03/05 10:10:47;;;;;;;10.27;8.85;;;8.10;99.90;;;;;;5011888;28;20223;-83
2022/03/05 10:13:25;;;;;;;11.30;9.23;;;8.10;99.90;;;;;;5012423;28;20302;-83
2022/03/05 10:15:56;;;;;;;12.30;9.40;;;8.10;99.90;;;;;;5012215;28;20203;-84
2022/03/05 10:18:29;;;;;;;11.90;9.20;;;8.20;99.90;;;;;;5012860;28;20217;-85
2022/03/05 10:20:59;;;;;;;9.88;8.88;;;8.30;99.90;;;;;;5012191;28;20255;-83
2022/03/05 10:23:30;;;;;;;10.50;8.77;;;8.30;99.80;;;;;;5012146;28;20207;-84
2022/03/05 10:25:58;;;;;;;11.90;9.57;;;8.20;99.40;;;;;;5012658;28;20215;-83
2022/03/05 10:28:28;;;;;;;9.32;8.43;;;8.30;98.90;;;;;;5012392;28;20293;-83
2022/03/05 10:31:02;;;;;;;9.98;8.20;;;8.20;99.40;;;;;;5012018;28;20227;-84
2022/03/05 10:33:33;;;;;;;10.82;8.50;;;8.30;99.70;;;;;;5012163;28;20219;-84
2022/03/05 10:36:02;;;;;;;14.10;9.55;;;8.60;98.90;;;;;;5012107;28;20435;-84
2022/03/05 10:38:49;;;;;;;9.70;8.15;;;9.20;97.30;;;;;;5012204;28;20215;-84
2022/03/05 10:41:19;;;;;;;13.68;9.38;;;9.30;95.90;;;;;;5011800;28;20223;-83
2022/03/05 10:43:48;;;;;;;11.27;8.40;;;9.20;96.60;;;;;;5015331;28;20203;-83
2022/03/05 10:46:18;;;;;;;14.70;9.52;;;9.00;97.00;;;;;;5015616;28;20275;-83
2022/03/05 10:48:47;;;;;;;9.25;8.35;;;9.00;98.80;;;;;;5015396;28;20277;-85
2022/03/05 10:51:18;;;;;;;9.07;8.13;;;9.10;96.40;;;;;;5015298;28;20265;-83
2022/03/05 10:53:47;;;;;;;10.52;9.45;;;9.20;97.50;;;;;;5015340;28;20251;-83
2022/03/05 10:56:27;;;;;;;9.50;8.00;;;9.20;96.30;;;;;;5015400;28;20207;-83
2022/03/05 10:59:06;;;;;;;13.50;8.75;;;8.90;96.60;;;;;;5015255;28;20203;-84
2022/03/05 11:01:38;;;;;;;12.05;9.35;;;8.60;97.30;;;;;;5014803;28;20292;-84
2022/03/05 11:04:08;;;;;;;10.88;8.75;;;8.40;97.20;;;;;;5015193;28;20199;-84
2022/03/05 11:06:38;;;;;;;13.65;9.20;;;8.10;97.20;;;;;;5015057;28;20234;-84
2022/03/05 11:09:07;;;;;;;17.17;9.10;;;7.80;97.10;;;;;;5015395;28;20203;-83
2022/03/05 11:11:38;;;;;;;9.00;8.07;;;7.60;97.70;;;;;;5015397;28;20227;-84
2022/03/05 11:14:11;;;;;;;11.60;8.95;;;7.30;98.70;;;;;;5014463;28;20223;-84
2022/03/05 11:16:42;;;;;;;9.23;8.32;;;7.10;99.50;;;;;;5014453;28;20203;-85
2022/03/05 11:19:11;;;;;;;11.95;8.73;;;6.90;99.50;;;;;;5014271;28;20203;-85
2022/03/05 11:21:39;;;;;;;12.18;9.10;;;6.80;99.20;;;;;;5014456;28;20235;-84
2022/03/05 11:24:08;;;;;;;11.55;8.75;;;6.70;99.50;;;;;;5014753;28;20199;-83
2022/03/05 11:26:38;;;;;;;11.45;8.98;;;6.60;99.70;;;;;;5014443;28;20211;-83
2022/03/05 11:29:28;;;;;;;8.70;7.65;;;6.60;99.90;;;;;;5014029;28;20211;-84
2022/03/05 11:32:13;;;;;;;12.93;8.93;;;6.50;99.40;;;;;;5014519;28;20265;-83
2022/03/05 11:34:44;;;;;;;8.98;8.07;;;6.40;99.90;;;;;;5014701;28;20227;-83
2022/03/05 11:37:18;;;;;;;12.20;9.20;;;6.40;99.20;;;;;;5014642;28;20207;-84
2022/03/05 11:39:46;;;;;;;11.05;8.25;;;6.50;99.90;;;;;;5013838;28;20219;-84
2022/03/05 11:42:28;;;;;;;10.68;8.07;;;6.50;98.70;;;;;;5014377;28;20203;-84
2022/03/05 11:44:57;;;;;;;9.07;7.82;;;6.50;98.30;;;;;;5014420;28;20260;-84
2022/03/05 11:47:29;;;;;;;9.45;7.88;;;6.50;98.90;;;;;;5014363;28;20211;-85
2022/03/05 11:50:11;;;;;;;13.32;8.60;;;6.60;98.60;;;;;;5014122;28;20230;-83
2022/03/05 11:53:06;;;;;;;9.38;8.27;;;6.60;98.70;;;;;;5014197;28;20217;-84
2022/03/05 11:55:41;;;;;;;7.97;7.18;;;6.70;98.70;;;;;;5013265;28;20223;-84
2022/03/05 11:58:31;;;;;;;8.50;7.45;;;6.80;98.50;;;;;;5015322;28;20202;-84
2022/03/05 12:01:20;;;;;;;10.00;7.85;;;6.80;98.00;;;;;;5014141;28;20239;-84
2022/03/05 12:03:52;;;;;;;9.10;8.13;;;6.90;97.50;;;;;;5014127;28;20262;-85
2022/03/05 12:06:21;;;;;;;9.88;7.57;;;7.00;97.60;;;;;;5013855;28;20237;-84
2022/03/05 12:08:52;;;;;;;9.65;7.70;;;7.10;97.50;;;;;;5013664;28;20233;-84
2022/03/05 12:11:23;;;;;;;10.55;7.93;;;7.00;97.50;;;;;;5013460;28;20223;-84
2022/03/05 12:13:54;;;;;;;9.65;7.68;;;7.10;97.50;;;;;;5013652;28;20207;-84
2022/03/05 12:16:25;;;;;;;7.78;6.97;;;7.10;96.60;;;;;;5014019;28;20217;-84
2022/03/05 12:18:57;;;;;;;8.18;7.38;;;7.20;96.60;;;;;;5014168;28;20215;-83
2022/03/05 12:21:27;;;;;;;8.70;7.55;;;7.20;96.40;;;;;;5013187;28;20219;-84
2022/03/05 12:23:59;;;;;;;8.15;6.72;;;7.20;95.10;;;;;;5013736;28;20207;-84
2022/03/05 12:26:37;;;;;;;8.23;7.35;;;7.20;95.90;;;;;;5013179;28;20207;-84
2022/03/05 12:29:08;;;;;;;8.40;6.95;;;7.20;97.10;;;;;;5013747;28;20215;-85
2022/03/05 12:31:40;;;;;;;15.88;7.97;;;7.10;96.00;;;;;;5013187;28;20227;-84
2022/03/05 12:34:10;;;;;;;6.90;6.20;;;7.10;94.40;;;;;;5013796;28;20199;-85
2022/03/05 12:36:48;;;;;;;9.18;6.50;;;7.10;95.60;;;;;;5013358;28;20202;-84
2022/03/05 12:39:17;;;;;;;6.60;5.88;;;7.20;95.10;;;;;;5013965;28;20289;-85
2022/03/05 12:41:46;;;;;;;6.95;5.70;;;7.20;94.20;;;;;;5013540;28;20203;-84
2022/03/05 12:44:15;;;;;;;10.68;6.18;;;7.30;94.20;;;;;;5013342;28;20241;-84
2022/03/05 12:46:44;;;;;;;10.07;6.22;;;7.40;94.10;;;;;;5013311;28;20210;-85
2022/03/05 12:49:13;;;;;;;9.50;7.15;;;7.50;94.30;;;;;;5013323;28;20211;-85
2022/03/05 12:51:42;;;;;;;6.45;5.75;;;7.60;94.60;;;;;;5013073;28;20215;-84
2022/03/05 12:54:10;;;;;;;10.73;7.05;;;7.80;94.40;;;;;;5013266;28;20207;-85
2022/03/05 12:56:40;;;;;;;8.93;7.05;;;7.90;94.00;;;;;;5012612;28;20280;-84
2022/03/05 12:59:09;;;;;;;9.77;7.40;;;8.00;94.30;;;;;;5013160;28;20210;-85
2022/03/05 13:01:37;;;;;;;6.80;6.00;;;8.00;93.90;;;;;;5012906;28;20281;-85